Time;durP1;ratioP1;P1;durP2;ratioP2;P2;SDS_P1;SDS_P2;PMS_P1;PMS_P2;Temp;Humidity;BMP_temperature;BMP_pressure;BME280_temperature;BME280_humidity;BME280_pressure;Samples;Min_cycle;Max_cycle;Signal;HPM_P1;HPM_P2
2022/11/21 00:01:14;;;;;;;24.45;15.58;;;;;;;2.59;72.30;100252.03;1736686;81;21065;-78
2022/11/21 00:03:41;;;;;;;22.37;15.63;;;;;;;2.63;72.24;100254.25;1701499;84;21031;-78
2022/11/21 00:06:09;;;;;;;24.00;15.40;;;;;;;2.58;72.31;100246.47;1720341;82;21533;-77
2022/11/21 00:08:36;;;;;;;23.30;15.93;;;;;;;2.57;72.33;100242.23;1723362;81;21247;-78
2022/11/21 00:11:03;;;;;;;22.30;15.25;;;;;;;2.57;72.36;100246.70;1716081;83;21065;-78
2022/11/21 00:13:30;;;;;;;20.32;14.25;;;;;;;2.55;72.36;100244.77;1707904;82;21055;-78
2022/11/21 00:16:05;;;;;;;23.12;15.85;;;;;;;2.55;72.37;100242.12;1708839;84;20989;-78
2022/11/21 00:18:33;;;;;;;21.60;14.55;;;;;;;2.62;72.22;100235.50;1696395;83;21580;-78
2022/11/21 00:21:08;;;;;;;23.73;15.45;;;;;;;2.55;72.31;100233.70;1707840;83;21061;-78
2022/11/21 00:23:37;;;;;;;24.10;15.45;;;;;;;2.53;72.30;100227.86;1714154;83;21029;-78
2022/11/21 00:26:11;;;;;;;26.07;16.55;;;;;;;2.47;72.31;100230.02;1716782;83;21100;-78
2022/11/21 00:28:39;;;;;;;23.22;16.25;;;;;;;2.47;72.38;100235.29;1702264;83;21085;-78
2022/11/21 00:31:19;;;;;;;22.62;14.60;;;;;;;2.51;72.45;100219.34;1721889;83;20986;-77
2022/11/21 00:33:47;;;;;;;22.48;15.45;;;;;;;2.57;72.40;100209.78;1722256;83;21021;-78
2022/11/21 00:36:15;;;;;;;23.12;15.63;;;;;;;2.55;72.30;100213.94;1722076;83;20986;-77
2022/11/21 00:38:42;;;;;;;22.55;14.93;;;;;;;2.54;72.32;100207.57;1707022;83;21058;-77
2022/11/21 00:41:09;;;;;;;20.32;13.62;;;;;;;2.55;72.36;100202.59;1704847;84;21029;-77
2022/11/21 00:43:36;;;;;;;24.27;15.78;;;;;;;2.56;72.33;100194.97;1704659;84;21002;-78
2022/11/21 00:46:04;;;;;;;23.95;15.53;;;;;;;2.51;72.28;100192.98;1705100;83;20994;-78
2022/11/21 00:48:32;;;;;;;24.23;16.07;;;;;;;2.50;72.34;100195.33;1712074;83;20978;-77
2022/11/21 00:50:59;;;;;;;25.27;16.65;;;;;;;2.49;72.40;100202.91;1722254;83;20962;-78
2022/11/21 00:53:26;;;;;;;25.30;16.52;;;;;;;2.54;72.43;100192.55;1722172;83;21030;-77
2022/11/21 00:55:52;;;;;;;26.12;17.07;;;;;;;2.61;72.45;100191.70;1715128;83;21659;-77
2022/11/21 00:58:19;;;;;;;24.60;15.85;;;;;;;2.63;72.40;100196.23;1718622;82;21552;-77
2022/11/21 01:00:46;;;;;;;24.00;15.78;;;;;;;2.67;72.30;100189.02;1717586;82;21010;-77
2022/11/21 01:03:13;;;;;;;27.77;17.65;;;;;;;2.65;72.35;100185.78;1722374;83;20954;-77
2022/11/21 01:05:40;;;;;;;25.90;16.52;;;;;;;2.66;72.39;100175.52;1721519;82;21500;-78
2022/11/21 01:08:07;;;;;;;25.57;17.02;;;;;;;2.73;72.45;100176.79;1700952;83;21120;-78
2022/11/21 01:10:35;;;;;;;24.65;15.50;;;;;;;2.76;72.30;100181.64;1706734;82;21144;-78
2022/11/21 01:13:02;;;;;;;25.10;15.55;;;;;;;2.75;72.15;100185.30;1705414;83;21012;-77
2022/11/21 01:15:28;;;;;;;26.85;17.48;;;;;;;2.69;72.11;100183.52;1721950;83;20981;-77
2022/11/21 01:17:55;;;;;;;25.95;17.35;;;;;;;2.69;72.04;100175.61;1720949;82;20982;-77
2022/11/21 01:20:22;;;;;;;26.73;16.12;;;;;;;2.68;72.13;100172.69;1698364;84;21077;-77
2022/11/21 01:22:49;;;;;;;24.23;16.23;;;;;;;2.65;72.03;100186.30;1714922;82;21585;-77
2022/11/21 01:25:17;;;;;;;26.77;16.60;;;;;;;2.64;72.08;100196.56;1721670;82;21429;-77
2022/11/21 01:27:44;;;;;;;24.10;15.88;;;;;;;2.61;72.04;100198.30;1699135;82;21055;-76
2022/11/21 01:30:14;;;;;;;22.90;15.63;;;;;;;2.59;72.07;100193.22;1714350;83;21035;-76
2022/11/21 01:32:41;;;;;;;26.85;16.95;;;;;;;2.58;72.07;100202.97;1708792;82;21013;-77
2022/11/21 01:35:10;;;;;;;23.70;15.05;;;;;;;2.59;72.04;100205.89;1698738;84;20990;-77
2022/11/21 01:37:36;;;;;;;24.12;15.63;;;;;;;2.58;72.10;100191.09;1683455;82;21127;-77
2022/11/21 01:40:05;;;;;;;24.67;15.93;;;;;;;2.59;72.07;100180.84;1699348;82;20958;-77
2022/11/21 01:42:55;;;;;;;23.22;14.98;;;;;;;2.61;72.12;100174.57;1676529;85;21133;-77
2022/11/21 01:46:04;;;;;;;24.23;15.08;;;;;;;2.61;72.07;100174.05;1703441;84;21071;-77
2022/11/21 01:48:52;;;;;;;24.00;15.60;;;;;;;2.67;71.89;100165.81;1717780;82;21144;-78
2022/11/21 01:51:25;;;;;;;25.15;15.95;;;;;;;2.54;72.16;100150.38;1698822;82;21114;-78
2022/11/21 01:54:15;;;;;;;25.15;16.45;;;;;;;2.54;72.18;100155.64;1703694;84;21154;-78
2022/11/21 01:56:57;;;;;;;28.65;17.35;;;;;;;2.58;72.25;100160.78;1703762;82;21077;-78
2022/11/21 01:59:31;;;;;;;31.82;18.32;;;;;;;2.63;72.25;100169.36;1702883;82;21015;-77
2022/11/21 02:01:59;;;;;;;28.45;18.10;;;;;;;2.69;72.17;100175.09;1702947;82;21435;-78
2022/11/21 02:04:29;;;;;;;28.25;17.30;;;;;;;2.71;72.15;100187.56;1698028;84;21023;-78
2022/11/21 02:07:01;;;;;;;31.82;18.50;;;;;;;2.75;72.16;100186.11;1677331;82;21477;-78
2022/11/21 02:09:30;;;;;;;28.95;18.40;;;;;;;2.81;72.12;100202.91;1705301;82;21601;-77
2022/11/21 02:12:04;;;;;;;29.82;18.20;;;;;;;2.86;72.06;100201.74;1705015;83;20959;-77
2022/11/21 02:14:31;;;;;;;27.50;18.15;;;;;;;2.89;71.96;100193.41;1702220;84;22088;-77
2022/11/21 02:17:01;;;;;;;24.63;15.13;;;;;;;2.93;71.87;100177.47;1739099;81;21090;-77
2022/11/21 02:19:42;;;;;;;27.58;16.07;;;;;;;2.96;71.73;100168.29;1734623;81;21425;-77
2022/11/21 02:22:18;;;;;;;26.95;17.42;;;;;;;2.88;71.63;100165.42;1721623;83;20989;-77
2022/11/21 02:24:48;;;;;;;29.00;17.35;;;;;;;2.82;71.59;100157.05;1722268;83;20990;-78
2022/11/21 02:27:16;;;;;;;28.17;16.87;;;;;;;2.86;71.33;100159.54;1754732;81;20982;-78
2022/11/21 02:29:43;;;;;;;29.10;16.30;;;;;;;2.75;71.43;100172.92;1718048;82;21015;-77
2022/11/21 02:32:21;;;;;;;27.98;16.55;;;;;;;2.73;71.49;100184.70;1724735;83;21018;-78
2022/11/21 02:34:49;;;;;;;28.83;17.15;;;;;;;2.70;71.54;100191.23;1721517;83;21017;-78
2022/11/21 02:37:16;;;;;;;30.05;18.52;;;;;;;2.65;71.59;100199.48;1720947;83;21013;-78
2022/11/21 02:39:44;;;;;;;30.52;17.52;;;;;;;2.71;71.67;100202.59;1676062;84;21567;-78
2022/11/21 02:42:24;;;;;;;27.20;16.40;;;;;;;2.77;71.73;100200.41;1714442;83;21049;-78
2022/11/21 02:45:19;;;;;;;28.73;17.07;;;;;;;2.82;71.67;100192.14;1703646;84;21030;-78
2022/11/21 02:47:49;;;;;;;28.35;17.05;;;;;;;2.82;71.61;100190.02;1710671;82;21047;-78
2022/11/21 02:50:33;;;;;;;28.38;16.85;;;;;;;2.81;71.55;100182.62;1684774;84;20984;-78
2022/11/21 02:53:00;;;;;;;29.75;16.00;;;;;;;2.79;71.54;100169.34;1724447;81;21222;-77
2022/11/21 02:55:26;;;;;;;28.95;16.45;;;;;;;2.76;71.50;100164.02;1704239;84;21055;-77
2022/11/21 02:57:53;;;;;;;33.10;19.17;;;;;;;2.80;71.34;100160.43;1674101;84;21054;-77
2022/11/21 03:00:20;;;;;;;34.00;19.82;;;;;;;2.74;71.46;100162.61;1700115;82;21051;-77
2022/11/21 03:02:47;;;;;;;35.70;18.52;;;;;;;2.75;71.50;100176.88;1705406;82;21022;-78
2022/11/21 03:05:16;;;;;;;35.40;19.48;;;;;;;2.75;71.50;100184.79;1688874;84;21175;-77
2022/11/21 03:07:42;;;;;;;33.98;19.45;;;;;;;2.74;71.42;100181.06;1706160;82;21102;-78
2022/11/21 03:10:09;;;;;;;33.13;18.65;;;;;;;2.72;71.43;100171.23;1685522;83;21086;-78
2022/11/21 03:12:39;;;;;;;29.85;17.45;;;;;;;2.73;71.49;100176.30;1688782;84;21114;-78
2022/11/21 03:15:12;;;;;;;30.62;17.02;;;;;;;2.73;71.43;100178.11;1721819;83;21033;-78
2022/11/21 03:17:39;;;;;;;30.27;17.95;;;;;;;2.70;71.43;100181.17;1696819;83;21237;-78
2022/11/21 03:20:07;;;;;;;33.53;19.32;;;;;;;2.67;71.46;100192.98;1683984;82;20989;-78
2022/11/21 03:22:35;;;;;;;35.70;19.02;;;;;;;2.68;71.50;100206.97;1695134;84;21066;-78
2022/11/21 03:25:02;;;;;;;39.85;21.10;;;;;;;2.77;71.44;100203.05;1722188;82;21015;-78
2022/11/21 03:27:29;;;;;;;31.55;18.75;;;;;;;2.78;71.53;100203.34;1716407;83;21076;-78
2022/11/21 03:29:56;;;;;;;29.95;16.48;;;;;;;2.82;71.59;100197.41;1726653;82;21554;-78
2022/11/21 03:32:24;;;;;;;30.48;17.92;;;;;;;2.87;71.57;100198.11;1721672;82;21007;-77
2022/11/21 03:34:52;;;;;;;32.48;19.23;;;;;;;2.85;71.45;100193.55;1718912;83;21181;-78
2022/11/21 03:37:20;;;;;;;33.25;18.00;;;;;;;2.82;71.47;100196.09;1723928;81;21060;-78
2022/11/21 03:39:46;;;;;;;45.30;20.20;;;;;;;2.84;71.47;100197.73;1753981;81;21019;-78
2022/11/21 03:42:14;;;;;;;31.05;18.87;;;;;;;2.83;71.41;100196.92;1711838;81;21755;-78
2022/11/21 03:44:40;;;;;;;36.00;20.45;;;;;;;2.82;71.45;100200.56;1722015;83;20990;-78
2022/11/21 03:47:09;;;;;;;33.25;19.30;;;;;;;2.80;71.40;100202.11;1737159;81;21090;-78
2022/11/21 03:49:35;;;;;;;38.65;20.10;;;;;;;2.82;71.44;100203.20;1711741;82;21569;-79
2022/11/21 03:52:03;;;;;;;34.65;18.60;;;;;;;2.86;71.47;100188.55;1694432;84;21481;-78
2022/11/21 03:54:30;;;;;;;33.05;19.35;;;;;;;2.89;71.43;100173.62;1699991;82;21363;-78
2022/11/21 03:56:56;;;;;;;39.08;21.20;;;;;;;2.87;71.34;100173.05;1705758;82;21448;-78
2022/11/21 04:13:29;;;;;;;38.53;20.97;;;;;;;3.27;70.71;100179.28;1783087;80;22402;-67
2022/11/21 04:15:56;;;;;;;35.68;19.95;;;;;;;3.17;70.65;100177.14;1767845;81;20915;-67
2022/11/21 04:18:23;;;;;;;37.15;20.75;;;;;;;3.12;70.65;100168.25;1741468;81;21093;-66
2022/11/21 04:21:00;;;;;;;39.53;22.05;;;;;;;3.03;70.64;100166.42;1708574;82;21054;-67
2022/11/21 04:23:27;;;;;;;35.85;20.37;;;;;;;2.99;70.73;100159.94;1760320;81;20911;-66
2022/11/21 04:25:54;;;;;;;33.70;19.02;;;;;;;2.92;70.73;100147.33;1740064;81;21077;-66
2022/11/21 04:28:21;;;;;;;32.08;19.42;;;;;;;2.84;70.82;100151.57;1767987;81;21465;-66
2022/11/21 04:30:47;;;;;;;36.58;19.52;;;;;;;2.78;70.86;100145.32;1766042;81;21297;-67
2022/11/21 04:33:16;;;;;;;36.68;19.60;;;;;;;2.71;70.93;100143.25;1754308;81;21480;-67
2022/11/21 04:35:44;;;;;;;27.90;16.35;;;;;;;2.62;71.02;100140.58;1741273;81;21505;-67
2022/11/21 04:38:12;;;;;;;35.33;20.20;;;;;;;2.65;71.05;100136.20;1734626;82;21018;-67
2022/11/21 04:40:38;;;;;;;40.25;21.35;;;;;;;2.56;71.21;100132.49;1745914;81;20959;-67
2022/11/21 04:43:05;;;;;;;30.92;17.65;;;;;;;2.58;71.41;100136.25;1767972;81;21172;-67
2022/11/21 04:45:31;;;;;;;33.75;20.00;;;;;;;2.62;71.47;100123.44;1736420;81;21039;-66
2022/11/21 04:47:58;;;;;;;33.10;18.75;;;;;;;2.64;71.50;100137.23;1767111;81;21038;-67
2022/11/21 04:50:25;;;;;;;36.15;19.70;;;;;;;2.68;71.50;100133.13;1768225;81;21065;-67
2022/11/21 04:52:53;;;;;;;37.80;21.25;;;;;;;2.68;71.56;100147.63;1745932;81;21559;-67
2022/11/21 04:55:23;;;;;;;32.08;19.35;;;;;;;2.71;71.53;100131.39;1734524;81;21197;-66
2022/11/21 04:57:50;;;;;;;33.18;19.02;;;;;;;2.71;71.57;100127.43;1734619;82;21426;-66
2022/11/21 05:00:18;;;;;;;37.15;21.75;;;;;;;2.68;71.57;100126.02;1749064;81;20943;-66
2022/11/21 05:02:45;;;;;;;30.45;17.57;;;;;;;2.68;71.60;100121.27;1754567;81;21047;-67
2022/11/21 05:05:14;;;;;;;33.08;19.25;;;;;;;2.70;71.64;100113.44;1734755;82;21082;-67
2022/11/21 05:07:41;;;;;;;35.08;19.67;;;;;;;2.68;71.57;100107.56;1734697;82;21245;-67
2022/11/21 05:10:08;;;;;;;32.10;18.37;;;;;;;2.61;71.48;100097.59;1718657;81;21035;-67
2022/11/21 05:15:20;;;;;;;35.88;19.25;;;;;;;2.56;71.60;100105.33;1734841;82;20964;-66
2022/11/21 05:17:47;;;;;;;34.53;19.05;;;;;;;2.54;71.67;100103.44;1757241;81;20951;-65
2022/11/21 05:20:17;;;;;;;36.80;20.45;;;;;;;2.52;71.72;100094.41;1760061;81;21150;-65
2022/11/21 05:22:48;;;;;;;36.48;19.45;;;;;;;2.46;71.68;100086.03;1744292;81;21126;-65
2022/11/21 05:25:13;;;;;;;36.13;18.52;;;;;;;2.46;71.71;100090.50;1753051;81;21545;-65
2022/11/21 05:27:39;;;;;;;31.65;18.85;;;;;;;2.44;71.80;100092.05;1756889;81;21057;-65
2022/11/21 05:30:08;;;;;;;31.25;18.85;;;;;;;2.44;71.83;100092.56;1750540;81;21012;-65
2022/11/21 05:32:36;;;;;;;32.13;18.87;;;;;;;2.43;71.89;100105.43;1765014;81;21014;-65
2022/11/21 05:35:04;;;;;;;36.75;19.95;;;;;;;2.42;71.95;100091.45;1765714;81;20974;-65
2022/11/21 05:37:30;;;;;;;35.40;19.60;;;;;;;2.42;71.97;100092.77;1767087;81;21557;-65
2022/11/21 05:39:58;;;;;;;37.13;21.02;;;;;;;2.47;72.07;100093.42;1740031;81;21002;-65
2022/11/21 05:45:10;;;;;;;32.20;18.73;;;;;;;2.63;71.94;100093.41;1707671;82;21439;-66
2022/11/21 05:47:36;;;;;;;31.40;18.45;;;;;;;2.58;72.01;100098.02;1753600;81;21514;-65
2022/11/21 05:50:05;;;;;;;29.82;17.37;;;;;;;2.58;72.05;100100.66;1733743;81;21058;-65
2022/11/21 05:52:32;;;;;;;31.10;18.20;;;;;;;2.61;72.15;100109.97;1728070;81;21354;-65
2022/11/21 05:54:58;;;;;;;33.95;19.17;;;;;;;2.63;72.09;100116.62;1736732;81;20944;-65
2022/11/21 05:57:25;;;;;;;31.65;18.75;;;;;;;2.63;72.14;100116.62;1724836;82;21000;-66
2022/11/21 05:59:51;;;;;;;32.63;19.12;;;;;;;2.68;72.15;100109.40;1714933;82;21118;-66
2022/11/21 06:05:04;;;;;;;33.88;19.40;;;;;;;2.61;72.02;100094.95;1707450;82;21008;-66
2022/11/21 06:07:31;;;;;;;33.55;19.55;;;;;;;2.58;72.00;100094.06;1715603;81;21039;-66
2022/11/21 06:09:58;;;;;;;34.80;20.85;;;;;;;2.59;72.01;100096.47;1727106;82;21146;-66
2022/11/21 06:12:25;;;;;;;31.12;18.73;;;;;;;2.62;72.03;100095.76;1728883;81;21015;-66
2022/11/21 06:14:52;;;;;;;29.82;17.07;;;;;;;2.66;72.05;100093.78;1722124;82;21040;-66
2022/11/21 06:17:18;;;;;;;32.23;19.37;;;;;;;2.66;72.02;100090.34;1722369;82;21023;-67
2022/11/21 06:19:45;;;;;;;30.72;18.57;;;;;;;2.68;72.01;100094.90;1731070;82;21099;-67
2022/11/21 06:22:12;;;;;;;30.27;17.42;;;;;;;2.73;72.01;100091.08;1732142;82;21108;-66
2022/11/21 06:24:38;;;;;;;30.30;18.17;;;;;;;2.78;72.03;100090.73;1732873;82;20992;-67
2022/11/21 06:27:05;;;;;;;31.77;19.55;;;;;;;2.85;71.85;100092.52;1733651;82;20975;-68
2022/11/21 06:29:31;;;;;;;34.03;20.75;;;;;;;2.81;71.85;100092.14;1733983;82;21047;-68
2022/11/21 06:31:58;;;;;;;32.40;19.52;;;;;;;2.78;71.81;100097.84;1732380;82;21095;-67
2022/11/21 06:34:26;;;;;;;30.72;18.40;;;;;;;2.77;71.77;100087.81;1721313;82;21470;-67
2022/11/21 06:36:52;;;;;;;33.90;20.40;;;;;;;2.76;71.78;100074.83;1726137;82;21506;-67
2022/11/21 06:39:19;;;;;;;30.72;18.98;;;;;;;2.78;71.81;100072.80;1734190;82;20936;-67
2022/11/21 06:41:49;;;;;;;25.68;16.62;;;;;;;2.84;71.87;100077.20;1733064;82;21035;-67
2022/11/21 06:44:17;;;;;;;31.20;19.00;;;;;;;2.88;71.78;100084.97;1733337;81;21068;-67
2022/11/21 06:46:45;;;;;;;30.80;18.85;;;;;;;2.92;71.74;100086.66;1764328;81;21109;-67
2022/11/21 06:49:12;;;;;;;31.02;19.30;;;;;;;2.92;71.69;100090.61;1741109;81;21041;-66
2022/11/21 06:51:38;;;;;;;31.93;19.12;;;;;;;2.92;71.71;100098.01;1730561;81;21047;-66
2022/11/21 06:54:05;;;;;;;34.30;20.05;;;;;;;2.97;71.67;100099.49;1746708;81;20990;-68
2022/11/21 06:56:33;;;;;;;33.75;20.92;;;;;;;3.02;71.59;100090.91;1746459;81;21027;-67
2022/11/21 06:59:00;;;;;;;33.80;20.35;;;;;;;3.02;71.53;100096.19;1757888;81;21102;-67
2022/11/21 07:01:26;;;;;;;32.33;19.67;;;;;;;3.04;71.47;100104.70;1733563;82;21071;-68
2022/11/21 07:03:53;;;;;;;29.48;18.67;;;;;;;3.07;71.51;100098.19;1733924;82;21024;-67
2022/11/21 07:06:21;;;;;;;31.07;18.87;;;;;;;3.09;71.50;100085.05;1733733;81;21613;-67
2022/11/21 07:08:53;;;;;;;30.25;19.92;;;;;;;3.11;71.40;100098.05;1732293;82;21015;-67
2022/11/21 07:11:19;;;;;;;33.30;20.05;;;;;;;3.11;71.31;100114.67;1734362;82;21904;-68
2022/11/21 07:13:46;;;;;;;32.78;19.50;;;;;;;3.12;71.35;100120.23;1733795;82;21411;-67
2022/11/21 07:16:14;;;;;;;32.42;19.60;;;;;;;3.22;71.43;100131.09;1733954;82;21431;-67
2022/11/21 07:18:43;;;;;;;30.45;19.32;;;;;;;3.29;71.39;100133.17;1734311;82;21149;-66
2022/11/21 07:21:09;;;;;;;32.60;19.73;;;;;;;3.37;71.36;100125.47;1734162;82;21114;-66
2022/11/21 07:23:37;;;;;;;30.77;18.62;;;;;;;3.41;71.27;100118.72;1734155;82;21151;-67
2022/11/21 07:26:06;;;;;;;29.20;17.87;;;;;;;3.40;71.17;100114.99;1732814;82;21017;-69
2022/11/21 07:28:33;;;;;;;30.20;19.65;;;;;;;3.39;71.07;100109.39;1734146;82;20904;-68
2022/11/21 07:31:02;;;;;;;28.27;17.57;;;;;;;3.40;71.14;100094.67;1733709;81;21055;-68
2022/11/21 07:33:29;;;;;;;31.05;19.10;;;;;;;3.44;70.95;100089.23;1733625;82;21011;-68
2022/11/21 07:35:56;;;;;;;30.05;19.02;;;;;;;3.40;70.81;100087.27;1733617;82;21156;-67
2022/11/21 07:38:26;;;;;;;34.43;20.55;;;;;;;3.37;70.74;100089.03;1732951;82;21149;-67
2022/11/21 07:40:53;;;;;;;37.67;21.77;;;;;;;3.39;70.76;100089.11;1734036;82;21056;-67
2022/11/21 07:43:20;;;;;;;28.70;17.32;;;;;;;3.45;70.71;100089.52;1714407;82;21459;-67
2022/11/21 07:45:47;;;;;;;32.40;19.82;;;;;;;3.48;70.56;100079.84;1734145;82;20968;-66
2022/11/21 07:48:14;;;;;;;31.27;18.82;;;;;;;3.53;70.29;100077.87;1732353;82;21103;-67
2022/11/21 07:50:41;;;;;;;28.47;17.05;;;;;;;3.46;70.25;100081.11;1732274;82;21134;-68
2022/11/21 07:53:10;;;;;;;35.45;20.43;;;;;;;3.45;70.15;100085.56;1732296;82;21058;-69
2022/11/21 07:55:37;;;;;;;30.48;18.15;;;;;;;3.40;70.05;100084.11;1732054;81;21058;-68
2022/11/21 07:58:07;;;;;;;27.52;16.42;;;;;;;3.40;70.00;100081.99;1703556;84;21059;-68
2022/11/21 08:00:36;;;;;;;27.02;17.50;;;;;;;3.39;69.99;100082.51;1704017;82;21086;-67
2022/11/21 08:03:10;;;;;;;25.02;16.50;;;;;;;3.38;69.97;100085.36;1703820;84;21130;-67
2022/11/21 08:05:38;;;;;;;25.72;16.65;;;;;;;3.44;69.98;100084.47;1704862;83;26692;-68
2022/11/21 08:08:06;;;;;;;28.20;16.97;;;;;;;3.44;69.92;100082.64;1704656;84;21545;-67
2022/11/21 08:10:35;;;;;;;25.37;16.75;;;;;;;3.46;69.89;100083.23;1704745;84;21066;-68
2022/11/21 08:13:02;;;;;;;27.60;17.32;;;;;;;3.48;69.86;100083.80;1704691;84;21170;-69
2022/11/21 08:15:29;;;;;;;27.55;16.67;;;;;;;3.52;69.80;100084.99;1705592;82;21019;-68
2022/11/21 08:17:55;;;;;;;25.52;16.02;;;;;;;3.55;69.74;100092.16;1704509;83;21074;-68
2022/11/21 08:20:23;;;;;;;28.25;18.07;;;;;;;3.53;69.70;100085.27;1704796;83;20967;-70
2022/11/21 08:22:49;;;;;;;24.50;15.23;;;;;;;3.57;69.72;100080.35;1704472;84;21181;-68
2022/11/21 08:25:16;;;;;;;28.75;18.12;;;;;;;3.62;69.66;100075.22;1704781;84;21117;-68
2022/11/21 08:27:42;;;;;;;29.20;17.92;;;;;;;3.63;69.61;100066.27;1704343;84;21067;-67
2022/11/21 08:30:12;;;;;;;29.82;18.65;;;;;;;3.67;69.61;100059.50;1720515;81;21047;-69
2022/11/21 08:32:39;;;;;;;30.52;18.42;;;;;;;3.73;69.54;100064.41;1730402;82;21058;-68
2022/11/21 08:35:07;;;;;;;28.57;18.27;;;;;;;3.80;69.42;100055.88;1709313;82;21031;-68
2022/11/21 08:37:35;;;;;;;28.02;17.98;;;;;;;3.78;69.08;100046.03;1733976;82;21468;-68
2022/11/21 08:40:01;;;;;;;26.42;16.35;;;;;;;3.71;69.03;100049.29;1734224;82;21451;-67
2022/11/21 08:42:29;;;;;;;23.73;16.00;;;;;;;3.62;68.94;100044.85;1733818;82;21043;-67
2022/11/21 08:44:55;;;;;;;24.20;15.32;;;;;;;3.59;69.08;100043.17;1734053;82;21075;-67
2022/11/21 08:47:22;;;;;;;22.58;14.58;;;;;;;3.62;69.12;100040.89;1727896;82;21098;-67
2022/11/21 08:49:48;;;;;;;21.82;14.10;;;;;;;3.60;68.91;100033.70;1705396;82;21146;-68
2022/11/21 08:52:17;;;;;;;24.05;16.00;;;;;;;3.59;68.73;100031.30;1686503;84;21063;-68
2022/11/21 08:54:44;;;;;;;25.95;15.65;;;;;;;3.48;68.75;100031.52;1704659;84;21078;-67
2022/11/21 08:57:11;;;;;;;23.87;15.18;;;;;;;3.47;68.97;100026.75;1724405;82;21011;-67
2022/11/21 08:59:38;;;;;;;24.25;16.20;;;;;;;3.52;68.99;100028.22;1734218;82;20995;-66
2022/11/21 09:02:06;;;;;;;23.90;15.95;;;;;;;3.53;69.00;100026.38;1733964;82;21215;-68
2022/11/21 09:04:32;;;;;;;22.95;15.35;;;;;;;3.50;68.94;100027.63;1734081;82;21144;-68
2022/11/21 09:07:00;;;;;;;26.12;16.65;;;;;;;3.48;68.95;100025.71;1726583;82;21067;-69
2022/11/21 09:09:27;;;;;;;25.75;16.60;;;;;;;3.58;68.97;100033.63;1704809;83;21019;-68
2022/11/21 09:11:54;;;;;;;24.00;16.15;;;;;;;3.64;69.12;100035.38;1704827;84;21197;-68
2022/11/21 09:19:58;;;;;;;23.22;14.98;;;;;;;3.76;68.83;100046.80;1704959;83;20983;-67
2022/11/21 09:22:25;;;;;;;24.50;15.32;;;;;;;3.73;68.69;100040.12;1704681;83;21062;-66
2022/11/21 09:24:51;;;;;;;24.98;17.60;;;;;;;3.80;68.61;100049.27;1727035;82;20968;-67
2022/11/21 09:27:20;;;;;;;26.48;17.15;;;;;;;3.81;68.77;100056.16;1733833;82;21109;-68
2022/11/21 09:29:46;;;;;;;28.45;17.27;;;;;;;3.89;68.79;100047.13;1734181;82;20956;-68
2022/11/21 09:32:13;;;;;;;26.23;16.55;;;;;;;3.97;68.69;100035.70;1733955;82;21066;-67
2022/11/21 09:34:40;;;;;;;28.10;17.80;;;;;;;3.99;68.60;100028.36;1720564;82;21075;-67
2022/11/21 09:37:06;;;;;;;25.60;16.55;;;;;;;4.00;68.40;100035.25;1704839;83;21051;-68
2022/11/21 09:39:33;;;;;;;26.75;17.50;;;;;;;3.97;68.31;100034.90;1704522;84;21616;-67
2022/11/21 09:42:40;;;;;;;24.65;16.55;;;;;;;3.91;68.21;100033.16;1705434;82;21000;-67
2022/11/21 09:45:17;;;;;;;22.77;14.25;;;;;;;3.91;68.21;100036.59;1704381;83;20979;-69
2022/11/21 09:47:50;;;;;;;22.73;14.45;;;;;;;3.87;68.23;100038.61;1704604;84;21656;-67
2022/11/21 09:50:34;;;;;;;21.82;14.05;;;;;;;3.87;68.28;100027.52;1704889;83;21024;-66
2022/11/21 09:53:09;;;;;;;25.50;15.70;;;;;;;3.89;68.33;100028.63;1704606;84;21318;-68
2022/11/21 09:55:44;;;;;;;25.77;16.70;;;;;;;3.92;68.43;100032.15;1705313;81;21016;-67
2022/11/21 09:58:31;;;;;;;24.12;15.15;;;;;;;3.97;68.50;100025.13;1724324;82;21114;-68
2022/11/21 10:00:58;;;;;;;26.80;17.32;;;;;;;4.04;68.43;100020.27;1658508;84;21023;-68
2022/11/21 10:03:29;;;;;;;27.02;16.57;;;;;;;4.02;68.24;100021.03;1704853;84;21185;-68
2022/11/21 14:44:13;;;;;;;9.13;5.53;;;;;;;2.95;85.50;99426.25;1835255;77;22330;-64
2022/11/21 14:46:42;;;;;;;10.13;6.12;;;;;;;3.05;84.57;99432.23;1799616;79;21007;-64
2022/11/21 14:49:19;;;;;;;9.10;5.45;;;;;;;3.03;83.91;99435.13;1790065;79;21156;-64
2022/11/21 14:51:55;;;;;;;7.97;5.10;;;;;;;3.01;83.54;99434.55;1792089;78;20988;-64
2022/11/21 14:54:26;;;;;;;7.47;4.78;;;;;;;3.05;83.04;99438.83;1799706;79;21541;-64
2022/11/21 14:57:01;;;;;;;9.40;5.42;;;;;;;3.10;82.66;99453.97;1799544;79;20931;-65
2022/11/21 14:59:32;;;;;;;8.33;5.20;;;;;;;3.11;82.18;99447.13;1799114;79;20915;-65
2022/11/21 15:02:03;;;;;;;8.38;5.33;;;;;;;3.14;81.67;99443.23;1798977;79;21221;-65
2022/11/21 15:04:34;;;;;;;7.08;4.20;;;;;;;3.14;81.25;99432.67;1797789;79;20928;-64
2022/11/21 15:07:00;;;;;;;8.58;5.35;;;;;;;3.12;80.69;99426.30;1778077;79;21041;-65
2022/11/21 15:09:28;;;;;;;8.90;5.33;;;;;;;3.14;80.46;99426.08;1768243;81;21544;-66
2022/11/21 15:12:07;;;;;;;6.85;4.28;;;;;;;3.18;80.25;99427.20;1768022;80;21474;-65
2022/11/21 15:14:42;;;;;;;7.17;4.67;;;;;;;3.22;79.96;99441.52;1768170;81;21226;-65
2022/11/21 15:17:14;;;;;;;7.22;4.60;;;;;;;3.24;79.68;99451.33;1767890;80;21050;-66
2022/11/21 15:19:44;;;;;;;;;;;;;;;3.24;79.42;99461.89;1771044;81;21604;-66
2022/11/21 18:51:33;;;;;;;8.23;5.50;;;;;;;3.39;87.16;99121.70;1768593;80;22006;-72
2022/11/21 18:54:05;;;;;;;8.85;6.08;;;;;;;3.42;86.36;99121.20;1741375;82;21129;-73
2022/11/21 18:56:32;;;;;;;8.05;4.90;;;;;;;3.49;85.89;99121.82;1729396;81;21823;-73
2022/11/21 18:59:02;;;;;;;8.43;5.63;;;;;;;3.56;85.37;99123.48;1626558;80;9999692;-73
2022/11/21 19:01:31;;;;;;;7.78;5.03;;;;;;;3.60;84.79;99124.05;1704133;84;21088;-73
2022/11/21 19:03:58;;;;;;;7.80;5.22;;;;;;;3.61;84.37;99111.11;1688361;84;21823;-73
2022/11/21 19:06:25;;;;;;;8.03;6.00;;;;;;;3.63;83.92;99110.89;1692584;84;21143;-74
2022/11/21 19:08:54;;;;;;;8.80;5.97;;;;;;;3.67;83.52;99113.30;1684954;84;21059;-73
2022/11/21 19:11:23;;;;;;;10.85;7.42;;;;;;;3.68;83.11;99110.93;1705563;84;21047;-74
2022/11/21 19:13:49;;;;;;;13.22;8.45;;;;;;;3.67;82.72;99110.14;1697057;84;21014;-73
2022/11/21 19:16:20;;;;;;;13.58;9.38;;;;;;;3.68;82.43;99124.92;1679120;84;21023;-73
2022/11/21 19:18:46;;;;;;;10.05;6.42;;;;;;;3.72;82.24;99127.90;1687852;85;21539;-72
2022/11/21 19:21:15;;;;;;;8.18;5.67;;;;;;;3.78;81.97;99129.52;1687647;85;20952;-72
2022/11/21 19:23:42;;;;;;;8.03;5.87;;;;;;;3.82;81.72;99135.11;1667456;85;21103;-72
2022/11/21 19:26:16;;;;;;;7.70;5.53;;;;;;;3.87;81.50;99133.86;1675573;85;21106;-73
2022/11/21 19:28:44;;;;;;;6.67;4.62;;;;;;;3.90;81.32;99122.27;1701797;83;21048;-72
2022/11/21 19:31:14;;;;;;;6.65;4.37;;;;;;;3.92;81.08;99118.08;1714015;83;21350;-73
2022/11/21 19:33:40;;;;;;;7.80;4.58;;;;;;;3.93;80.90;99115.70;1683354;83;21000;-73
2022/11/21 19:36:19;;;;;;;7.47;5.40;;;;;;;3.98;80.62;99117.06;1675431;85;21070;-73
2022/11/21 19:38:46;;;;;;;10.23;6.72;;;;;;;3.93;80.46;99107.78;1675309;85;21028;-73
2022/11/21 19:41:18;;;;;;;9.68;6.30;;;;;;;3.92;80.29;99113.59;1691643;83;21479;-74
2022/11/21 19:43:50;;;;;;;9.70;6.30;;;;;;;3.91;80.14;99119.89;1709342;83;21186;-74
2022/11/21 19:46:25;;;;;;;7.80;5.55;;;;;;;3.90;79.99;99123.59;1709344;84;21001;-74
2022/11/21 19:48:54;;;;;;;8.43;5.60;;;;;;;3.91;79.84;99123.06;1713029;83;21032;-74
2022/11/21 19:51:23;;;;;;;7.72;5.65;;;;;;;3.88;79.70;99127.02;1709370;83;21454;-74
2022/11/21 19:53:50;;;;;;;7.15;4.83;;;;;;;3.86;79.56;99125.14;1708258;84;20996;-73
2022/11/21 19:56:20;;;;;;;6.97;5.03;;;;;;;3.88;79.50;99132.30;1706075;83;21122;-74
2022/11/21 19:58:47;;;;;;;6.95;4.50;;;;;;;3.89;79.35;99140.50;1701954;84;21095;-74
2022/11/21 20:01:18;;;;;;;7.30;5.03;;;;;;;3.88;79.26;99134.95;1690113;84;21062;-73
2022/11/21 20:03:47;;;;;;;6.83;4.83;;;;;;;3.91;79.05;99131.78;1699904;84;21103;-73
2022/11/21 20:06:23;;;;;;;7.92;4.62;;;;;;;3.91;78.94;99127.82;1704154;84;20973;-73